Time;durP1;ratioP1;P1;durP2;ratioP2;P2;SDS_P1;SDS_P2;PMS_P1;PMS_P2;Temp;Humidity;BMP_temperature;BMP_pressure;BME280_temperature;BME280_humidity;BME280_pressure;Samples;Min_cycle;Max_cycle;Signal;HPM_P1;HPM_P2
2023/01/04 00:01:15;;;;;;;15.50;10.30;;;;;;;12.66;60.30;101411.80;106322;1300;21948;-59
2023/01/04 00:03:41;;;;;;;18.00;10.20;;;;;;;12.70;60.13;101411.08;106484;1300;21950;-64
2023/01/04 00:06:08;;;;;;;13.20;9.50;;;;;;;12.77;60.14;101411.40;106374;1299;21968;-64
2023/01/04 00:08:34;;;;;;;16.30;8.90;;;;;;;12.79;60.16;101408.06;106267;1298;21949;-64
2023/01/04 00:11:01;;;;;;;16.10;9.60;;;;;;;12.85;60.23;101415.58;106449;1296;21953;-64
2023/01/04 00:13:29;;;;;;;16.10;10.00;;;;;;;12.88;60.12;101415.73;106493;1300;21952;-60
2023/01/04 00:15:54;;;;;;;14.30;9.10;;;;;;;12.87;60.10;101423.33;106494;1297;21965;-64
2023/01/04 00:18:21;;;;;;;15.10;9.50;;;;;;;12.90;60.02;101423.67;106498;1296;21948;-64
2023/01/04 00:20:47;;;;;;;14.00;9.00;;;;;;;12.85;60.00;101422.80;106393;1300;21950;-60
2023/01/04 00:23:12;;;;;;;14.90;9.80;;;;;;;12.78;60.24;101420.89;106271;1300;21962;-64
2023/01/04 00:25:38;;;;;;;13.90;9.20;;;;;;;12.83;60.26;101423.69;106315;1300;23692;-60
2023/01/04 00:28:05;;;;;;;14.90;9.70;;;;;;;12.85;60.36;101423.52;106353;1299;22015;-60
2023/01/04 00:30:30;;;;;;;12.50;8.70;;;;;;;12.87;60.23;101424.91;106273;1300;21961;-60
2023/01/04 00:32:58;;;;;;;13.30;9.30;;;;;;;12.87;60.34;101427.38;106455;1300;21958;-60
2023/01/04 00:35:26;;;;;;;15.90;9.40;;;;;;;12.91;60.15;101430.35;106276;1300;21979;-64
2023/01/04 00:37:52;;;;;;;16.50;10.20;;;;;;;12.91;60.16;101434.57;106489;1300;21957;-59
2023/01/04 00:40:18;;;;;;;14.50;8.90;;;;;;;12.83;60.50;101436.73;106329;1300;21967;-61
2023/01/04 00:42:44;;;;;;;11.30;8.40;;;;;;;12.84;60.57;101435.14;106437;1300;21968;-60
2023/01/04 00:45:09;;;;;;;12.60;8.70;;;;;;;12.93;60.60;101437.38;106250;1300;22005;-64
2023/01/04 00:47:35;;;;;;;13.30;9.50;;;;;;;13.04;60.19;101437.16;106447;1300;22034;-60
2023/01/04 00:50:01;;;;;;;14.60;9.70;;;;;;;13.10;60.12;101438.89;106383;1300;21963;-64
2023/01/04 00:52:26;;;;;;;13.60;9.20;;;;;;;13.13;59.98;101442.20;106499;1300;21979;-60
2023/01/04 00:54:53;;;;;;;13.00;9.20;;;;;;;13.12;60.08;101443.80;106438;1300;21982;-64
2023/01/04 00:57:19;;;;;;;12.50;9.10;;;;;;;13.13;59.99;101443.09;106485;1300;21960;-64
2023/01/04 00:59:44;;;;;;;14.10;8.90;;;;;;;13.10;60.06;101445.40;106416;1300;21967;-60
2023/01/04 01:02:10;;;;;;;16.70;8.90;;;;;;;13.17;59.88;101446.42;106576;1300;21946;-60
2023/01/04 01:04:36;;;;;;;13.30;8.80;;;;;;;13.27;59.52;101447.05;106527;1300;21947;-65
2023/01/04 01:07:05;;;;;;;16.20;9.10;;;;;;;13.28;59.63;101441.77;106468;1300;21953;-64
2023/01/04 01:09:32;;;;;;;13.00;8.40;;;;;;;13.28;59.59;101441.23;106295;1300;21963;-60
2023/01/04 01:11:58;;;;;;;13.40;8.90;;;;;;;13.28;59.62;101443.17;106492;1299;21953;-60
2023/01/04 01:14:24;;;;;;;12.90;8.20;;;;;;;13.27;59.58;101447.25;106425;1300;21936;-62
2023/01/04 01:16:50;;;;;;;17.80;8.80;;;;;;;13.26;59.63;101446.88;106397;1296;21955;-64
2023/01/04 01:19:17;;;;;;;13.10;8.20;;;;;;;13.22;59.59;101445.86;106370;1300;21975;-60
2023/01/04 01:21:43;;;;;;;16.00;9.10;;;;;;;13.26;59.47;101443.72;106404;1300;21948;-65
2023/01/04 01:24:17;;;;;;;12.20;8.00;;;;;;;13.19;59.58;101444.29;106320;1298;21954;-65
2023/01/04 01:26:43;;;;;;;16.80;9.00;;;;;;;13.13;59.74;101444.67;106293;1300;21966;-60
2023/01/04 01:29:09;;;;;;;11.70;8.10;;;;;;;13.12;59.88;101443.45;106287;1298;21953;-60
2023/01/04 01:31:34;;;;;;;12.30;9.70;;;;;;;13.10;59.96;101445.23;106352;1300;22969;-64
2023/01/04 01:34:00;;;;;;;11.90;8.50;;;;;;;13.13;60.03;101445.20;106382;1300;21956;-60
2023/01/04 01:36:26;;;;;;;14.70;9.30;;;;;;;13.15;59.91;101444.14;106304;1300;21964;-60
2023/01/04 01:38:53;;;;;;;12.60;8.10;;;;;;;13.14;60.07;101449.08;105581;1300;1002550;-65
2023/01/04 01:41:22;;;;;;;14.00;8.50;;;;;;;13.19;59.76;101450.64;106515;1299;21962;-64
2023/01/04 01:43:51;;;;;;;12.90;8.30;;;;;;;13.25;59.78;101449.02;106496;1300;21963;-64
2023/01/04 01:46:30;;;;;;;13.60;8.30;;;;;;;13.23;59.62;101452.73;106282;1298;21981;-65
2023/01/04 01:49:01;;;;;;;13.90;8.20;;;;;;;13.28;59.61;101451.45;106284;1300;21958;-60
2023/01/04 01:51:27;;;;;;;11.20;7.90;;;;;;;13.29;59.49;101451.63;106314;1299;21950;-65
2023/01/04 01:53:57;;;;;;;12.80;9.10;;;;;;;13.29;59.35;101451.63;106263;1293;21956;-60
2023/01/04 01:56:23;;;;;;;12.20;8.00;;;;;;;13.31;59.22;101447.73;106234;1300;21974;-60
2023/01/04 01:58:51;;;;;;;14.80;8.40;;;;;;;13.31;59.13;101447.39;106088;1301;21995;-59
2023/01/04 02:01:17;;;;;;;15.00;8.00;;;;;;;13.33;59.22;101445.95;105575;1300;1002771;-64
2023/01/04 02:03:43;;;;;;;12.30;8.20;;;;;;;13.33;59.21;101450.02;104858;1296;1003208;-64
2023/01/04 02:06:16;;;;;;;11.10;8.50;;;;;;;13.32;59.09;101444.02;106274;1291;21951;-60
2023/01/04 02:08:43;;;;;;;16.20;9.10;;;;;;;13.33;58.84;101442.61;106123;1303;21957;-65
2023/01/04 02:11:10;;;;;;;13.00;8.50;;;;;;;13.31;58.83;101441.05;106186;1300;21959;-65
2023/01/04 02:16:32;;;;;;;13.50;8.40;;;;;;;13.31;58.87;101444.38;106021;1300;21950;-60
2023/01/04 02:19:22;;;;;;;14.20;8.00;;;;;;;13.29;59.01;101446.69;106581;1299;21956;-65
2023/01/04 02:22:26;;;;;;;12.60;9.00;;;;;;;13.23;59.13;101448.31;106528;1299;21962;-60
2023/01/04 02:25:10;;;;;;;14.10;9.20;;;;;;;13.19;59.32;101447.48;106539;1300;24006;-65
2023/01/04 02:27:56;;;;;;;15.30;8.50;;;;;;;13.16;59.25;101446.60;104207;1300;1003012;-64
2023/01/04 02:30:37;;;;;;;10.10;7.30;;;;;;;13.18;59.22;101444.30;106484;1298;21954;-65
2023/01/04 02:33:31;;;;;;;11.50;7.30;;;;;;;13.19;59.28;101444.30;106588;1300;23062;-65
2023/01/04 02:36:17;;;;;;;12.40;7.80;;;;;;;13.16;59.14;101441.84;106486;1300;21945;-60
2023/01/04 02:39:07;;;;;;;15.60;7.80;;;;;;;13.14;59.31;101438.86;106517;1300;21958;-60
2023/01/04 02:41:34;;;;;;;12.40;7.70;;;;;;;13.13;59.10;101437.27;106501;1300;21953;-60
2023/01/04 02:47:03;;;;;;;13.30;7.80;;;;;;;13.09;59.19;101431.30;105830;1299;1002395;-65
2023/01/04 02:52:13;;;;;;;11.20;7.20;;;;;;;13.16;58.76;101424.58;106557;1298;21971;-60
2023/01/04 02:54:39;;;;;;;10.70;7.20;;;;;;;13.13;58.74;101430.40;106650;1300;21959;-65
2023/01/04 02:57:38;;;;;;;13.20;7.90;;;;;;;13.02;58.80;101432.23;106303;1299;21967;-65
2023/01/04 03:00:25;;;;;;;13.30;7.40;;;;;;;13.08;58.52;101439.95;106596;1300;22049;-60
2023/01/04 03:08:40;;;;;;;14.40;8.00;;;;;;;12.95;58.55;101438.80;106449;1300;21977;-65
2023/01/04 03:14:01;;;;;;;12.20;7.10;;;;;;;12.96;58.48;101436.15;106282;1301;21968;-65
2023/01/04 03:16:27;;;;;;;10.40;6.80;;;;;;;12.99;58.27;101437.55;106423;1300;23093;-60
2023/01/04 03:18:55;;;;;;;10.80;7.10;;;;;;;13.00;58.35;101439.48;106253;1300;21964;-65
2023/01/04 03:21:22;;;;;;;12.40;7.60;;;;;;;12.99;58.35;101437.90;106591;1300;21963;-65
2023/01/04 03:35:44;;;;;;;11.90;7.30;;;;;;;12.98;58.38;101452.34;106275;1299;21969;-60
2023/01/04 03:50:18;;;;;;;11.60;6.30;;;;;;;12.88;57.89;101472.11;106280;1300;21959;-60
2023/01/04 03:52:44;;;;;;;11.10;6.70;;;;;;;12.85;57.75;101471.24;106436;1300;23722;-60
2023/01/04 03:55:11;;;;;;;13.70;7.20;;;;;;;12.82;57.78;101477.25;106375;1300;21969;-60
2023/01/04 03:57:38;;;;;;;12.50;7.00;;;;;;;12.79;57.74;101483.77;106181;1300;21999;-65
2023/01/04 04:00:09;;;;;;;12.90;7.10;;;;;;;12.75;57.62;101491.20;106142;1300;21966;-65
2023/01/04 04:02:36;;;;;;;11.20;7.10;;;;;;;12.69;57.49;101492.61;106356;1300;22003;-60
2023/01/04 04:10:34;;;;;;;13.70;6.50;;;;;;;12.63;57.45;101494.74;106380;1300;21966;-59
2023/01/04 04:13:00;;;;;;;9.30;6.70;;;;;;;12.59;57.50;101492.64;105038;1298;1002754;-59
2023/01/04 04:15:26;;;;;;;12.60;7.30;;;;;;;12.56;57.38;101499.34;106390;1296;21965;-59
2023/01/04 04:17:53;;;;;;;12.80;6.50;;;;;;;12.57;57.29;101500.40;106372;1298;21968;-59
2023/01/04 04:20:19;;;;;;;11.00;6.40;;;;;;;12.59;57.21;101500.39;105668;1291;1002998;-64
2023/01/04 04:22:45;;;;;;;11.00;7.00;;;;;;;12.56;57.30;101499.35;106386;1300;21936;-59
2023/01/04 04:25:11;;;;;;;12.30;6.90;;;;;;;12.48;57.16;101507.46;106336;1299;21969;-64
2023/01/04 04:27:37;;;;;;;12.50;7.30;;;;;;;12.51;57.45;101508.35;105035;1298;1002672;-65
2023/01/04 04:30:03;;;;;;;11.80;6.40;;;;;;;12.55;57.31;101510.98;106419;1300;21981;-64
2023/01/04 04:32:29;;;;;;;10.50;6.60;;;;;;;12.57;57.18;101507.80;106442;1300;21964;-65
2023/01/04 04:34:56;;;;;;;10.10;6.40;;;;;;;12.58;57.26;101505.51;106355;1300;21958;-65
2023/01/04 04:37:22;;;;;;;11.50;7.10;;;;;;;12.58;57.06;101511.31;106508;1299;21964;-60
2023/01/04 04:39:48;;;;;;;11.30;6.70;;;;;;;12.57;57.20;101513.77;106362;1300;21969;-59
2023/01/04 04:42:13;;;;;;;10.60;7.10;;;;;;;12.55;57.14;101512.55;106355;1292;21976;-60
2023/01/04 04:44:39;;;;;;;12.00;6.60;;;;;;;12.56;57.14;101510.96;106401;1299;21968;-60
2023/01/04 04:47:04;;;;;;;10.50;6.90;;;;;;;12.58;57.06;101518.00;106285;1300;21972;-60
2023/01/04 04:49:31;;;;;;;11.40;7.20;;;;;;;12.62;57.02;101517.46;106259;1299;21945;-65
2023/01/04 04:51:57;;;;;;;12.50;6.90;;;;;;;12.66;57.19;101514.82;106316;1300;21971;-60
2023/01/04 04:54:23;;;;;;;12.90;7.30;;;;;;;12.68;57.14;101509.17;106416;1295;22007;-65
2023/01/04 04:56:49;;;;;;;14.40;7.80;;;;;;;12.65;56.99;101515.69;106287;1299;21957;-60
2023/01/04 04:59:15;;;;;;;13.30;7.90;;;;;;;12.65;57.01;101521.50;106313;1300;21951;-65
2023/01/04 05:01:41;;;;;;;13.30;7.60;;;;;;;12.63;57.04;101525.73;106345;1300;21997;-65
2023/01/04 05:04:07;;;;;;;15.30;7.90;;;;;;;12.63;57.08;101525.73;106343;1293;21982;-64
2023/01/04 05:06:34;;;;;;;10.10;6.70;;;;;;;12.62;56.96;101517.98;106500;1300;21980;-60
2023/01/04 05:09:00;;;;;;;10.00;5.80;;;;;;;12.60;56.98;101516.41;106675;1298;21988;-65
2023/01/04 05:14:11;;;;;;;10.70;6.30;;;;;;;12.54;57.27;101521.71;106421;1300;21995;-60
2023/01/04 05:16:38;;;;;;;11.50;6.90;;;;;;;12.50;57.34;101519.61;106031;1292;395296;-66
2023/01/04 05:19:06;;;;;;;14.30;6.30;;;;;;;12.48;57.34;101521.02;106559;1300;23734;-65
2023/01/04 05:21:31;;;;;;;14.40;9.40;;;;;;;12.48;57.43;101513.80;106421;1300;21957;-59
2023/01/04 05:23:57;;;;;;;51.40;31.00;;;;;;;12.47;57.40;101509.40;106272;1300;21971;-65
2023/01/04 05:26:23;;;;;;;30.40;18.10;;;;;;;12.51;57.57;101512.21;106282;1300;22441;-67
2023/01/04 05:28:49;;;;;;;18.00;11.30;;;;;;;12.46;57.28;101521.02;106301;1300;21964;-67
2023/01/04 05:31:15;;;;;;;27.70;10.30;;;;;;;12.38;57.04;101514.70;106332;1300;21966;-67
2023/01/04 05:33:42;;;;;;;19.80;9.10;;;;;;;12.32;57.27;101511.02;106316;1300;21968;-66
2023/01/04 05:36:08;;;;;;;16.30;7.90;;;;;;;12.30;57.24;101508.90;106334;1282;21974;-67
2023/01/04 05:38:33;;;;;;;14.10;8.20;;;;;;;12.24;57.32;101509.27;106323;1292;21955;-59
2023/01/04 05:40:59;;;;;;;19.50;8.80;;;;;;;12.24;57.49;101509.27;106345;1298;21968;-66
2023/01/04 05:43:25;;;;;;;15.50;7.30;;;;;;;12.25;57.41;101517.71;106286;1300;21954;-59
2023/01/04 05:45:55;;;;;;;12.20;6.90;;;;;;;12.22;57.23;101525.27;106290;1291;21970;-59
2023/01/04 05:48:22;;;;;;;14.60;7.40;;;;;;;12.15;57.11;101530.73;106305;1300;21966;-60
2023/01/04 05:50:52;;;;;;;12.30;7.40;;;;;;;12.10;57.27;101543.77;106272;1300;22017;-66
2023/01/04 05:53:18;;;;;;;14.40;7.20;;;;;;;12.02;57.57;101553.23;106298;1295;21953;-59
2023/01/04 05:55:44;;;;;;;12.90;6.70;;;;;;;11.95;57.72;101560.42;106313;1300;21953;-60
2023/01/04 05:58:12;;;;;;;10.40;6.60;;;;;;;11.94;57.57;101564.99;106488;1300;21953;-59
2023/01/04 06:00:39;;;;;;;10.30;6.80;;;;;;;11.93;57.58;101566.59;106484;1296;21961;-66
2023/01/04 06:03:05;;;;;;;11.20;7.10;;;;;;;12.01;57.27;101565.05;106412;1298;21958;-60
2023/01/04 06:05:31;;;;;;;10.70;6.30;;;;;;;11.95;57.55;101567.13;106537;1300;21951;-67
2023/01/04 06:07:57;;;;;;;13.40;7.40;;;;;;;11.89;57.38;101569.92;106589;1300;21950;-59
2023/01/04 06:10:22;;;;;;;13.10;7.40;;;;;;;11.88;57.30;101574.48;106580;1295;21955;-67
2023/01/04 06:12:48;;;;;;;10.30;7.10;;;;;;;11.88;57.18;101573.96;106464;1300;21966;-67
2023/01/04 06:15:15;;;;;;;12.10;7.80;;;;;;;11.87;57.16;101572.91;106431;1300;21965;-59
2023/01/04 06:17:42;;;;;;;10.90;7.40;;;;;;;11.81;57.16;101576.77;106393;1300;21969;-59
2023/01/04 06:20:08;;;;;;;11.60;6.80;;;;;;;11.77;57.22;101576.58;106484;1299;22932;-59
2023/01/04 06:22:34;;;;;;;12.10;7.60;;;;;;;11.78;57.35;101573.08;106401;1300;21960;-67
2023/01/04 06:25:00;;;;;;;12.40;7.90;;;;;;;11.81;57.64;101570.26;106441;1286;21957;-59
2023/01/04 06:27:25;;;;;;;10.60;6.90;;;;;;;11.85;57.49;101571.50;106485;1298;21962;-66
2023/01/04 06:29:52;;;;;;;11.10;7.00;;;;;;;11.81;57.19;101574.66;106447;1300;21963;-60
2023/01/04 06:32:22;;;;;;;10.80;7.00;;;;;;;11.79;57.09;101577.46;106577;1299;21947;-59
2023/01/04 06:34:48;;;;;;;11.30;7.40;;;;;;;11.73;57.43;101575.16;105776;1300;1002554;-59
2023/01/04 06:37:14;;;;;;;11.40;7.00;;;;;;;11.74;57.16;101579.92;106365;1293;21963;-60
2023/01/04 06:39:39;;;;;;;9.60;5.80;;;;;;;11.74;57.19;101590.98;106650;1300;21975;-59
2023/01/04 06:42:05;;;;;;;11.10;6.40;;;;;;;11.73;57.10;101606.46;106593;1300;21958;-67
2023/01/04 06:44:31;;;;;;;9.80;6.10;;;;;;;11.71;57.27;101608.58;106295;1300;21964;-67
2023/01/04 06:46:57;;;;;;;10.60;6.70;;;;;;;11.71;57.44;101601.89;106311;1299;22414;-59
2023/01/04 06:49:23;;;;;;;16.40;10.00;;;;;;;11.73;57.41;101595.20;106334;1300;21964;-64
2023/01/04 06:51:48;;;;;;;10.30;7.00;;;;;;;11.72;57.62;101589.76;106286;1300;21934;-59
2023/01/04 06:54:14;;;;;;;9.80;5.80;;;;;;;11.76;57.74;101591.17;106303;1300;21995;-59
2023/01/04 06:56:40;;;;;;;11.40;6.60;;;;;;;11.83;57.76;101595.77;106358;1300;21995;-67
2023/01/04 06:59:08;;;;;;;10.90;7.10;;;;;;;11.88;57.95;101598.40;106406;1300;21957;-67
2023/01/04 07:01:35;;;;;;;12.80;7.40;;;;;;;11.93;58.14;101604.23;106335;1298;21996;-59
2023/01/04 07:04:01;;;;;;;10.70;6.00;;;;;;;12.01;58.26;101610.05;106535;1300;21955;-67
2023/01/04 07:06:27;;;;;;;8.50;5.90;;;;;;;12.10;58.12;101621.86;106455;1293;21955;-67
2023/01/04 07:08:54;;;;;;;12.30;7.00;;;;;;;12.15;57.67;101631.02;106484;1300;21965;-60
2023/01/04 07:11:20;;;;;;;12.20;6.20;;;;;;;12.17;57.62;101637.36;106511;1300;21948;-66
2023/01/04 07:13:46;;;;;;;11.20;6.70;;;;;;;12.21;57.34;101645.63;106616;1295;22023;-65
2023/01/04 07:16:12;;;;;;;11.90;6.70;;;;;;;12.27;56.97;101643.00;106637;1298;21961;-68
2023/01/04 07:18:39;;;;;;;10.60;5.20;;;;;;;12.35;56.94;101644.42;106429;1300;21956;-68
2023/01/04 07:21:05;;;;;;;8.20;5.30;;;;;;;12.43;56.87;101643.36;106574;1300;21962;-68
2023/01/04 07:23:31;;;;;;;9.80;6.40;;;;;;;12.50;56.68;101653.05;106291;1300;22432;-68
2023/01/04 07:26:00;;;;;;;11.30;6.50;;;;;;;12.52;56.45;101658.34;106580;1300;21956;-61
2023/01/04 07:31:11;;;;;;;9.30;5.90;;;;;;;12.60;57.15;101637.90;106488;1300;23719;-60
2023/01/04 07:33:37;;;;;;;9.90;5.70;;;;;;;12.65;57.10;101635.96;106532;1291;21940;-68
2023/01/04 07:36:04;;;;;;;10.40;5.80;;;;;;;12.71;57.36;101640.37;106565;1300;21971;-68
2023/01/04 07:38:32;;;;;;;8.40;5.70;;;;;;;12.84;56.89;101643.70;108037;1300;22011;-59
2023/01/04 07:41:03;;;;;;;13.20;6.40;;;;;;;12.99;56.83;101643.14;106621;1297;21944;-58
2023/01/04 07:43:29;;;;;;;10.40;6.50;;;;;;;13.05;56.82;101642.06;106384;1301;23504;-67
2023/01/04 07:45:57;;;;;;;12.00;7.10;;;;;;;13.06;56.54;101642.41;106655;1300;21954;-68
2023/01/04 07:48:22;;;;;;;12.30;7.20;;;;;;;12.90;56.37;101645.09;106323;1296;24105;-67
2023/01/04 07:50:49;;;;;;;11.20;8.10;;;;;;;12.75;56.45;101641.59;106313;1292;22005;-65
2023/01/04 07:53:14;;;;;;;11.40;6.90;;;;;;;12.67;56.40;101638.96;106297;1297;21949;-59
2023/01/04 07:55:41;;;;;;;10.60;7.20;;;;;;;12.65;56.29;101646.54;106337;1298;21959;-66
2023/01/04 07:58:07;;;;;;;12.30;8.00;;;;;;;12.70;56.60;101651.45;106292;1300;22004;-59
2023/01/04 08:00:32;;;;;;;11.50;7.70;;;;;;;12.76;56.67;101657.27;106299;1291;21968;-60
2023/01/04 08:02:58;;;;;;;11.80;7.30;;;;;;;12.74;56.19;101662.38;106404;1295;21960;-59
2023/01/04 08:05:24;;;;;;;10.60;6.90;;;;;;;12.78;55.99;101664.67;106291;1295;21965;-60
2023/01/04 08:07:50;;;;;;;12.10;7.20;;;;;;;12.82;56.07;101666.59;106257;1299;21958;-60
2023/01/04 08:10:17;;;;;;;9.90;6.90;;;;;;;12.89;56.25;101662.17;106375;1300;21952;-59
2023/01/04 08:12:43;;;;;;;11.70;7.10;;;;;;;12.88;55.71;101659.71;106302;1300;21951;-66
2023/01/04 08:15:26;;;;;;;9.90;6.10;;;;;;;12.90;55.62;101663.59;106295;1299;22427;-60
2023/01/04 08:17:55;;;;;;;9.60;6.90;;;;;;;13.01;55.82;101664.45;106293;1296;21969;-59
2023/01/04 08:20:20;;;;;;;11.30;6.50;;;;;;;13.12;55.67;101666.73;106275;1300;22016;-67
2023/01/04 08:22:46;;;;;;;9.50;6.70;;;;;;;13.14;55.16;101666.73;106295;1299;22017;-66
2023/01/04 08:25:12;;;;;;;9.60;6.50;;;;;;;13.07;54.94;101668.48;106288;1298;21972;-60
2023/01/04 08:27:40;;;;;;;11.50;6.80;;;;;;;13.04;54.96;101669.02;106322;1300;21971;-66
2023/01/04 08:30:07;;;;;;;10.20;6.50;;;;;;;13.00;54.64;101673.44;106362;1300;21950;-59
2023/01/04 08:32:34;;;;;;;10.80;6.70;;;;;;;12.95;54.80;101675.21;106326;1300;21973;-66
2023/01/04 08:35:00;;;;;;;10.10;5.30;;;;;;;12.87;53.96;101678.02;106298;1298;21972;-65
2023/01/04 08:37:25;;;;;;;7.70;4.80;;;;;;;12.78;53.64;101684.21;106294;1299;21959;-67
2023/01/04 08:39:51;;;;;;;10.90;5.20;;;;;;;12.70;53.23;101682.45;106268;1299;21965;-59
2023/01/04 08:42:17;;;;;;;8.80;4.90;;;;;;;12.67;53.37;101686.84;106304;1300;21964;-63
2023/01/04 08:44:43;;;;;;;8.10;4.90;;;;;;;12.68;53.64;101682.63;106322;1300;21955;-59
2023/01/04 08:47:09;;;;;;;10.30;5.90;;;;;;;12.72;54.28;101689.15;105528;1297;1002567;-60
2023/01/04 08:49:35;;;;;;;8.80;5.40;;;;;;;12.71;54.71;101694.08;106464;1300;21948;-59
2023/01/04 08:52:01;;;;;;;9.80;4.90;;;;;;;12.71;54.37;101694.25;106334;1298;21977;-59
2023/01/04 08:54:27;;;;;;;7.40;5.00;;;;;;;12.72;53.33;101685.80;106309;1299;21966;-59
2023/01/04 08:56:54;;;;;;;11.00;5.20;;;;;;;12.59;51.68;101683.51;106357;1299;21954;-66
2023/01/04 08:59:20;;;;;;;8.70;5.00;;;;;;;12.42;51.22;101686.67;106548;1297;24808;-67
2023/01/04 09:01:46;;;;;;;10.00;5.90;;;;;;;12.34;51.88;101689.48;106635;1300;21957;-59
2023/01/04 09:04:12;;;;;;;7.90;5.30;;;;;;;12.28;52.03;101689.47;106550;1291;22175;-59
2023/01/04 09:06:37;;;;;;;7.90;4.60;;;;;;;12.20;51.79;101691.03;106431;1300;21960;-59
2023/01/04 09:09:04;;;;;;;7.90;5.40;;;;;;;12.22;52.11;101692.79;106482;1300;21953;-68
2023/01/04 09:11:34;;;;;;;8.30;5.40;;;;;;;12.19;51.88;101687.69;106502;1300;21957;-59
2023/01/04 09:14:00;;;;;;;10.00;5.40;;;;;;;12.21;52.34;101684.86;106490;1300;21983;-67
2023/01/04 09:16:25;;;;;;;12.10;5.90;;;;;;;12.20;52.17;101672.91;106504;1299;21958;-67
2023/01/04 09:18:51;;;;;;;7.60;4.80;;;;;;;12.13;52.22;101674.48;106640;1300;21951;-69
2023/01/04 09:21:19;;;;;;;9.50;5.50;;;;;;;12.10;51.73;101670.61;106599;1300;21961;-64
2023/01/04 09:23:45;;;;;;;7.30;5.10;;;;;;;12.24;52.03;101663.41;106624;1300;21955;-69
2023/01/04 09:26:14;;;;;;;9.30;5.40;;;;;;;12.35;52.48;101656.04;106601;1299;21972;-59
2023/01/04 09:28:40;;;;;;;9.20;5.40;;;;;;;12.44;52.54;101649.53;106494;1300;21964;-60
2023/01/04 09:31:07;;;;;;;9.60;4.90;;;;;;;12.50;51.80;101648.83;106538;1299;21964;-60
2023/01/04 09:33:33;;;;;;;7.60;4.80;;;;;;;12.55;51.61;101645.65;106458;1299;23814;-69
2023/01/04 09:36:02;;;;;;;9.40;5.30;;;;;;;12.66;52.00;101644.06;106645;1290;21954;-60
2023/01/04 09:38:28;;;;;;;8.60;5.00;;;;;;;12.69;52.32;101638.78;106628;1300;21957;-69
2023/01/04 09:41:38;;;;;;;12.20;7.30;;;;;;;12.87;52.34;101634.53;106524;1300;21960;-69
2023/01/04 09:44:13;;;;;;;9.50;5.40;;;;;;;13.05;52.07;101636.08;106362;1300;21947;-68
2023/01/04 09:46:58;;;;;;;11.40;4.50;;;;;;;13.05;51.50;101634.31;106563;1299;21962;-68
2023/01/04 09:49:47;;;;;;;7.00;4.10;;;;;;;12.97;49.29;101638.55;106587;1299;22028;-58
2023/01/04 09:52:38;;;;;;;9.40;5.30;;;;;;;12.90;49.72;101636.45;106356;1300;23009;-59
2023/01/04 09:55:07;;;;;;;9.70;5.30;;;;;;;12.89;50.25;101633.99;106541;1300;21972;-67
2023/01/04 09:57:44;;;;;;;9.40;5.60;;;;;;;12.90;49.88;101628.52;106572;1298;23621;-67
2023/01/04 10:00:16;;;;;;;7.80;4.80;;;;;;;12.98;50.70;101621.48;106501;1300;21959;-59
2023/01/04 10:02:46;;;;;;;9.10;3.90;;;;;;;13.07;50.91;101621.61;106497;1300;22025;-59
2023/01/04 10:05:21;;;;;;;7.80;3.70;;;;;;;13.18;51.14;101622.84;106494;1299;21975;-67
2023/01/04 10:07:47;;;;;;;5.10;2.70;;;;;;;13.23;50.62;101616.99;106651;1300;21975;-59
2023/01/04 10:10:17;;;;;;;4.50;2.70;;;;;;;13.31;50.17;101609.38;106618;1292;21950;-59
2023/01/04 10:12:51;;;;;;;5.50;2.80;;;;;;;13.26;48.52;101611.17;106245;1301;22143;-67
2023/01/04 10:15:33;;;;;;;4.70;2.40;;;;;;;13.26;48.90;101609.22;106498;1300;21934;-59
2023/01/04 10:18:04;;;;;;;5.30;2.80;;;;;;;13.23;47.93;101607.13;106462;1300;21994;-59
2023/01/04 10:20:51;;;;;;;5.10;2.40;;;;;;;13.19;48.04;101606.08;106282;1296;22048;-59
2023/01/04 10:23:27;;;;;;;4.60;2.60;;;;;;;13.33;48.70;101598.09;106531;1292;21955;-60
2023/01/04 10:26:00;;;;;;;7.10;3.00;;;;;;;13.47;49.81;101598.05;106410;1300;23796;-61
2023/01/04 10:28:45;;;;;;;4.60;2.40;;;;;;;13.52;46.74;101595.04;106448;1299;21951;-65
2023/01/04 10:31:14;;;;;;;4.80;2.60;;;;;;;13.49;46.18;101594.17;106466;1291;22000;-60
2023/01/04 10:33:47;;;;;;;4.80;2.70;;;;;;;13.54;47.80;101594.32;106268;1300;21967;-67
2023/01/04 10:36:23;;;;;;;4.70;2.40;;;;;;;13.69;48.51;101589.13;106486;1300;21967;-60
2023/01/04 10:39:04;;;;;;;5.20;2.60;;;;;;;13.83;48.44;101584.45;106413;1300;21969;-65
2023/01/04 10:41:35;;;;;;;5.20;2.70;;;;;;;13.95;47.83;101580.85;106355;1300;22008;-67
2023/01/04 10:44:04;;;;;;;7.30;4.20;;;;;;;14.13;47.73;101576.47;106389;1300;21975;-60
2023/01/04 10:47:01;;;;;;;6.50;3.70;;;;;;;14.29;47.31;101571.58;106304;1299;21947;-65
2023/01/04 10:49:42;;;;;;;4.80;2.90;;;;;;;14.31;45.30;101571.39;106279;1300;21999;-66
2023/01/04 10:52:11;;;;;;;8.40;3.70;;;;;;;14.26;46.23;101567.36;106448;1290;21955;-67
2023/01/04 10:55:01;;;;;;;5.40;3.00;;;;;;;14.30;45.78;101562.22;106633;1300;21958;-60
2023/01/04 10:58:00;;;;;;;;;;;;;;;14.21;44.76;101558.59;106484;1300;21976;-60
2023/01/04 11:00:30;;;;;;;7.80;3.10;;;;;;;14.10;44.19;101556.55;106160;1300;21942;-60
2023/01/04 11:02:58;;;;;;;6.10;3.00;;;;;;;14.08;44.48;101560.45;106496;1300;21955;-60
2023/01/04 11:05:25;;;;;;;5.70;3.10;;;;;;;14.13;44.66;101557.59;106492;1300;23915;-68
2023/01/04 11:07:52;;;;;;;5.70;2.70;;;;;;;14.18;44.57;101558.60;106526;1296;21998;-68
2023/01/04 11:10:30;;;;;;;4.20;2.40;;;;;;;14.19;45.40;101557.89;106306;1301;21949;-60
2023/01/04 11:12:57;;;;;;;6.30;2.50;;;;;;;14.08;44.51;101557.28;106424;1300;21963;-67
2023/01/04 11:15:24;;;;;;;4.50;2.40;;;;;;;13.84;43.70;101558.34;106505;1299;22258;-59
2023/01/04 11:17:50;;;;;;;4.70;2.50;;;;;;;13.72;44.65;101560.54;106227;1300;21961;-60
2023/01/04 11:20:16;;;;;;;6.50;2.50;;;;;;;13.60;44.15;101561.32;106253;1301;21955;-68
2023/01/04 11:22:56;;;;;;;4.70;2.70;;;;;;;13.59;44.85;101561.33;106708;1295;21965;-68
2023/01/04 11:25:22;;;;;;;6.30;2.70;;;;;;;13.69;45.88;101555.08;106466;1298;21951;-67
2023/01/04 11:28:14;;;;;;;4.50;2.30;;;;;;;13.87;46.51;101548.61;106270;1300;22418;-68
2023/01/04 11:30:49;;;;;;;4.10;2.10;;;;;;;14.09;45.81;101541.56;106492;1300;22437;-68
2023/01/04 11:33:19;;;;;;;7.80;2.30;;;;;;;14.22;44.45;101539.33;106503;1297;21998;-67
2023/01/04 11:35:53;;;;;;;;;;;;;;;14.38;44.68;101538.48;106577;1300;22036;-67
2023/01/04 11:38:21;;;;;;;6.00;2.20;;;;;;;14.50;43.66;101538.36;106576;1300;21955;-68
2023/01/04 11:40:53;;;;;;;6.80;2.60;;;;;;;14.50;43.01;101538.89;106608;1300;22044;-67
2023/01/04 11:43:19;;;;;;;5.00;2.10;;;;;;;14.57;44.06;101536.52;106653;1300;21951;-59
2023/01/04 11:46:01;;;;;;;3.80;2.30;;;;;;;14.72;44.19;101535.66;106597;1293;21944;-67
2023/01/04 11:48:46;;;;;;;6.30;2.30;;;;;;;14.85;44.25;101528.30;106546;1300;21978;-66
2023/01/04 11:51:20;;;;;;;4.90;2.00;;;;;;;14.82;42.39;101525.69;106553;1300;21951;-60
2023/01/04 11:53:57;;;;;;;4.40;2.20;;;;;;;14.80;42.59;101527.30;106240;1301;21962;-67
2023/01/04 11:56:23;;;;;;;3.60;1.80;;;;;;;14.81;42.58;101529.76;106404;1300;23610;-60
2023/01/04 11:59:08;;;;;;;4.60;1.40;;;;;;;14.73;42.23;101526.83;106600;1299;21950;-60
2023/01/04 12:01:36;;;;;;;4.10;1.70;;;;;;;14.61;41.45;101536.31;106433;1300;21954;-65
2023/01/04 12:04:03;;;;;;;4.00;2.10;;;;;;;14.50;41.90;101537.30;106579;1300;21966;-64
2023/01/04 12:06:53;;;;;;;5.50;2.10;;;;;;;14.41;41.20;101528.90;106574;1301;21940;-66
2023/01/04 12:09:20;;;;;;;3.30;2.20;;;;;;;14.44;40.39;101526.77;106283;1300;21995;-60
2023/01/04 12:11:52;;;;;;;4.40;2.20;;;;;;;14.47;41.07;101528.50;106426;1300;21958;-67
2023/01/04 12:14:25;;;;;;;4.50;2.20;;;;;;;14.55;42.24;101530.54;105631;1297;1002587;-68